WARM SPRINGS (USACE) (WRS)

Elevation: 440' · RUSSIAN R basin · Operator: US Army Corps of Engineers

Provisional data, subject to change.
Query executed Wednesday at 22:24:09   clock

Select a sensor type for a plot of data.
Note: Reservoir Flows are daily averages.

Earlier

Date RES ELE    STORAGE    RES CHG    TOC STO    ABV TOC    OUTFLOW    INFLOW    PPT INC    TEMP MN    TEMP MX    EVP PAN   
 FEET   AF   AF   AF   AF   CFS   CFS   INCHES   DEG F   DEG F   INCHES  
01/12/2016 427.88 188872 377 245000 -56128 96 288 0.33 9 15 0.03
01/13/2016 429.34 192124 3252 245000 -52876 92 1734 1.08 4 14 0.03
01/14/2016 430.27 194215 2091 245000 -50785 90 1145 0.53 4 10 0.01
01/15/2016 431.12 196139 1924 245000 -48861 87 1060 0.22 4 14 0.03
01/16/2016 432.25 198717 2578 245000 -46283 87 1389 0.54 9 15 0.03
01/17/2016 435.11 205343 6626 245000 -39657 89 3430 1.79 11 14 0.01
01/18/2016 436.94 209660 4317 245000 -35340 87 2266 0.00 9 14 0.03
01/19/2016 439.19 215051 5391 245000 -29949 90 2810 1.11 6 17 0.03
01/20/2016 440.26 217647 2596 245000 -27353 90 1402 0.00 6 14 0.03
01/21/2016 440.91 219235 1588 245000 -25765 90 894 0.23 7 16 0.04
01/22/2016 441.87 221593 2358 245000 -23407 91 1282 0.54 10 15 0.03
01/23/2016 442.95 224267 2674 245000 -20733 90 1441 0.18 7 15 0.04
01/24/2016 443.67 226061 1794 245000 -18939 90 998 0.00 5 16 0.04
01/25/2016 444.23 227463 1402 245000 -17537 91 800 0.15 9 15 0.03
01/26/2016 444.63 228469 1006 245000 -16531 90 600 0.00 9 15 0.03
01/27/2016 444.92 229199 730 245000 -15801 90 462 0.00 7 18 0.04
01/28/2016 445.17 229830 631 245000 -15170 91 412 0.07 8 13 0.03
01/29/2016 445.57 230843 1013 245000 -14157 89 601 0.45 10 15 0.02
01/30/2016 445.85 231553 710 245000 -13447 87 448 0.00 7 15 0.04
01/31/2016 446.08 232138 585 245000 -12862 86 385 0.00 4 12 0.05
02/01/2016 446.24 232545 407 245000 -12455 87 296 0.00 2 14 0.05
02/02/2016 446.39 232927 382 245000 -12073 87 282 0.03 4 13 0.04
02/03/2016 446.52 233259 332 245000 -11741 87 257 0.02 4 12 0.04
02/04/2016 446.64 233565 306 245000 -11435 87 245 0.02 5 18 0.05
02/05/2016 446.72 233770 205 245000 -11230 87 194 0.00 4 17 0.05
02/06/2016 446.81 234000 230 245000 -11000 87 207 0.00 4 21 0.05
02/07/2016 446.87 234153 153 245000 -10847 87 170 0.04 9 29 0.09
02/08/2016 446.93 234307 154 245000 -10693 88 170 0.00 6 26 0.06
02/09/2016 446.98 234435 128 245000 -10565 87 156 0.00 6 24 0.06
02/10/2016 -- -- -- -- -- -- -- -- -- -- --

Later | Latest

Warning! This data is preliminary and subject to revision.

Show WRS Map | Plot WRS Data | 1 Month WRS Data | Real-Time WRS Data | WRS Info